createdAt,value
2023-05-22T00:00:09.790Z,37.83
2023-05-22T00:01:09.845Z,37.81
2023-05-22T00:02:09.960Z,37.80
2023-05-22T00:03:10.001Z,37.80
2023-05-22T00:04:10.040Z,37.83
2023-05-22T00:05:10.174Z,37.82
2023-05-22T00:06:10.216Z,37.81
2023-05-22T00:07:10.238Z,37.82
2023-05-22T00:08:10.309Z,37.82
2023-05-22T00:09:10.375Z,37.83
2023-05-22T00:10:10.988Z,37.83
2023-05-22T00:11:10.473Z,37.83
2023-05-22T00:12:10.520Z,37.83
2023-05-22T00:13:10.594Z,37.83
2023-05-22T00:14:10.660Z,37.83
2023-05-22T00:15:10.687Z,37.83
2023-05-22T00:16:10.768Z,37.83
2023-05-22T00:17:10.875Z,37.85
2023-05-22T00:18:10.913Z,37.83
2023-05-22T00:19:10.990Z,37.83
2023-05-22T00:20:11.105Z,37.83
2023-05-22T00:21:11.085Z,37.85
2023-05-22T00:22:11.142Z,37.82
2023-05-22T00:23:12.628Z,37.82
2023-05-22T00:24:11.428Z,37.84
2023-05-22T00:25:11.580Z,37.85
2023-05-22T00:26:11.570Z,37.82
2023-05-22T00:27:11.611Z,37.82
2023-05-22T00:28:11.685Z,37.83
2023-05-22T00:29:11.733Z,37.83
2023-05-22T00:30:11.802Z,37.83
2023-05-22T00:31:11.885Z,37.84
2023-05-22T00:32:11.907Z,37.84
2023-05-22T00:33:11.955Z,37.82
2023-05-22T00:34:12.136Z,37.82
2023-05-22T00:35:12.123Z,37.83
2023-05-22T00:36:12.181Z,37.83
2023-05-22T00:37:12.253Z,37.82
2023-05-22T00:38:12.301Z,37.82
2023-05-22T00:39:12.381Z,37.82
2023-05-22T00:40:12.413Z,37.83
2023-05-22T00:41:12.464Z,37.82
2023-05-22T00:42:12.578Z,37.84
2023-05-22T00:43:12.650Z,37.84
2023-05-22T00:44:12.673Z,37.82
2023-05-22T00:45:12.793Z,37.83
2023-05-22T00:46:12.929Z,37.82
2023-05-22T00:47:12.872Z,37.81
2023-05-22T00:48:12.885Z,37.80
2023-05-22T00:49:12.979Z,37.83
2023-05-22T00:50:13.056Z,37.82
2023-05-22T00:51:13.095Z,37.84
2023-05-22T00:52:13.180Z,37.81
2023-05-22T00:53:13.255Z,37.82
2023-05-22T00:54:13.320Z,37.83
2023-05-22T00:55:13.346Z,37.82
2023-05-22T00:56:13.403Z,37.83
2023-05-22T00:57:13.454Z,37.83
2023-05-22T00:58:13.526Z,37.83
2023-05-22T00:59:13.554Z,37.83
2023-05-22T01:00:13.644Z,37.82
2023-05-22T01:01:13.723Z,37.83
2023-05-22T01:02:13.778Z,37.81
2023-05-22T01:03:13.851Z,37.81
2023-05-22T01:04:13.967Z,37.82
2023-05-22T01:05:13.987Z,37.82
2023-05-22T01:06:13.983Z,37.82
2023-05-22T01:07:14.059Z,37.82
2023-05-22T01:08:14.101Z,37.83
2023-05-22T01:09:14.178Z,37.83
2023-05-22T01:10:14.216Z,37.82
2023-05-22T01:11:14.258Z,37.84
2023-05-22T01:12:14.343Z,37.84
2023-05-22T01:13:14.356Z,37.85
2023-05-22T01:14:14.434Z,37.82
2023-05-22T01:15:14.491Z,37.83
2023-05-22T01:16:14.570Z,37.83
2023-05-22T01:17:14.603Z,37.82
2023-05-22T01:18:14.705Z,37.83
2023-05-22T01:19:14.760Z,37.84
2023-05-22T01:20:14.779Z,37.83
2023-05-22T01:21:14.844Z,37.83
2023-05-22T01:22:14.892Z,37.84
2023-05-22T01:23:14.941Z,37.83
2023-05-22T01:24:15.002Z,37.84
2023-05-22T01:25:15.081Z,37.84
2023-05-22T01:26:15.131Z,37.84
2023-05-22T01:27:15.223Z,37.85
2023-05-22T01:28:15.261Z,37.84
2023-05-22T01:29:15.309Z,37.82
2023-05-22T01:30:15.350Z,37.83
2023-05-22T01:31:15.406Z,37.82
2023-05-22T01:32:15.473Z,37.85
2023-05-22T01:33:15.505Z,37.83
2023-05-22T01:34:15.588Z,37.84
2023-05-22T01:35:15.576Z,37.84
2023-05-22T01:36:16.530Z,37.84
2023-05-22T01:37:15.628Z,37.83
2023-05-22T01:38:15.698Z,37.82
2023-05-22T01:39:15.765Z,37.81
2023-05-22T01:40:15.793Z,37.83
2023-05-22T01:41:15.839Z,37.86
2023-05-22T01:42:15.906Z,37.82
2023-05-22T01:43:15.978Z,37.84
2023-05-22T01:44:16.016Z,37.83
2023-05-22T01:45:16.082Z,37.82
2023-05-22T01:46:16.173Z,37.83
2023-05-22T01:47:16.178Z,37.82
2023-05-22T01:48:16.240Z,37.84
2023-05-22T01:49:16.261Z,37.83
2023-05-22T01:50:16.349Z,37.84
2023-05-22T01:51:16.392Z,37.83
2023-05-22T01:52:16.469Z,37.83
2023-05-22T01:53:16.502Z,37.85
2023-05-22T01:54:16.549Z,37.84
2023-05-22T01:55:16.563Z,37.84
2023-05-22T01:56:16.631Z,37.83
2023-05-22T01:57:16.734Z,37.84
2023-05-22T01:58:16.748Z,37.83
2023-05-22T01:59:16.807Z,37.81
2023-05-22T02:00:16.871Z,37.82
2023-05-22T02:01:16.924Z,37.84
2023-05-22T02:02:16.962Z,37.83
2023-05-22T02:03:17.163Z,37.85
2023-05-22T02:04:17.086Z,37.85
2023-05-22T02:05:17.145Z,37.86
2023-05-22T02:06:17.178Z,37.84
2023-05-22T02:07:17.242Z,37.84
2023-05-22T02:08:17.296Z,37.84
2023-05-22T02:09:17.355Z,37.84
2023-05-22T02:10:17.437Z,37.82
2023-05-22T02:11:17.487Z,37.84
2023-05-22T02:12:17.562Z,37.85
2023-05-22T02:13:17.595Z,37.84
2023-05-22T02:14:17.650Z,37.84
2023-05-22T02:15:17.712Z,37.82
2023-05-22T02:16:17.829Z,37.83
2023-05-22T02:17:17.789Z,37.84
2023-05-22T02:18:17.855Z,37.85
2023-05-22T02:19:17.917Z,37.83
2023-05-22T02:20:17.938Z,37.84
2023-05-22T02:21:17.983Z,37.85
2023-05-22T02:22:18.064Z,37.82
2023-05-22T02:23:18.096Z,37.84
2023-05-22T02:24:18.196Z,37.84
2023-05-22T02:25:18.242Z,37.84
2023-05-22T02:26:18.266Z,37.83
2023-05-22T02:27:18.300Z,37.84
2023-05-22T02:28:18.291Z,37.82
2023-05-22T02:29:18.345Z,37.82
2023-05-22T02:30:18.393Z,37.82
2023-05-22T02:31:18.479Z,37.84
2023-05-22T02:32:18.516Z,37.81
2023-05-22T02:33:18.542Z,37.83
2023-05-22T02:34:18.598Z,37.84
2023-05-22T02:35:18.610Z,37.84
2023-05-22T02:36:18.634Z,37.79
2023-05-22T02:37:18.661Z,37.82
2023-05-22T02:38:18.685Z,37.83
2023-05-22T02:39:18.754Z,37.84
2023-05-22T02:40:18.841Z,37.85
2023-05-22T02:41:18.862Z,37.80
2023-05-22T02:42:18.896Z,37.83
2023-05-22T02:43:18.943Z,37.84
2023-05-22T02:44:19.014Z,37.84
2023-05-22T02:45:19.054Z,37.84
2023-05-22T02:46:19.118Z,37.84
2023-05-22T02:47:19.148Z,37.84
2023-05-22T02:48:19.172Z,37.84
2023-05-22T02:49:19.181Z,37.82
2023-05-22T02:50:19.227Z,37.85
2023-05-22T02:51:19.187Z,37.82
2023-05-22T02:52:19.223Z,37.82
2023-05-22T02:53:19.246Z,37.82
2023-05-22T02:54:19.250Z,37.83
2023-05-22T02:55:19.315Z,37.82
2023-05-22T02:56:19.337Z,37.83
2023-05-22T02:57:19.376Z,37.81
2023-05-22T02:58:19.426Z,37.84
2023-05-22T02:59:19.439Z,37.83
2023-05-22T03:00:19.508Z,37.82
2023-05-22T03:01:19.480Z,37.84
2023-05-22T03:02:19.557Z,37.82
2023-05-22T03:03:19.593Z,37.81
2023-05-22T03:04:19.554Z,37.84
2023-05-22T03:05:19.573Z,37.83
2023-05-22T03:06:19.624Z,37.83
2023-05-22T03:07:19.614Z,37.84
2023-05-22T03:08:19.647Z,37.83
2023-05-22T03:09:19.626Z,37.83
2023-05-22T03:10:19.674Z,37.83
2023-05-22T03:11:19.726Z,37.84
2023-05-22T03:12:19.712Z,37.80
2023-05-22T03:13:19.717Z,37.81
2023-05-22T03:14:19.774Z,37.82
2023-05-22T03:15:19.777Z,37.84
2023-05-22T03:16:19.877Z,37.83
2023-05-22T03:17:19.833Z,37.85
2023-05-22T03:18:19.861Z,37.84
2023-05-22T03:19:19.878Z,37.81
2023-05-22T03:20:19.871Z,37.83
2023-05-22T03:21:19.903Z,37.82
2023-05-22T03:22:19.985Z,37.84
2023-05-22T03:23:19.992Z,37.84
2023-05-22T03:24:20.051Z,37.83
2023-05-22T03:25:20.098Z,37.81
2023-05-22T03:26:20.134Z,37.82
2023-05-22T03:27:20.213Z,37.80
2023-05-22T03:28:20.203Z,37.81
2023-05-22T03:29:20.313Z,37.81
2023-05-22T03:30:20.352Z,37.82
2023-05-22T03:31:20.341Z,37.81
2023-05-22T03:32:20.407Z,37.82
2023-05-22T03:33:20.457Z,37.82
2023-05-22T03:34:20.521Z,37.81
2023-05-22T03:35:20.505Z,37.83
2023-05-22T03:36:20.551Z,37.81
2023-05-22T03:37:20.698Z,37.81
2023-05-22T03:38:20.867Z,37.80
2023-05-22T03:39:20.667Z,37.83
2023-05-22T03:40:20.733Z,37.83
2023-05-22T03:41:20.787Z,37.85
2023-05-22T03:42:20.827Z,37.83
2023-05-22T03:43:20.825Z,37.81
2023-05-22T03:44:20.871Z,37.83
2023-05-22T03:45:20.899Z,37.83
2023-05-22T03:46:21.054Z,37.83
2023-05-22T03:47:20.957Z,37.83
2023-05-22T03:48:21.012Z,37.82
2023-05-22T03:49:21.037Z,37.80
2023-05-22T03:50:21.051Z,37.82
2023-05-22T03:51:21.081Z,37.82
2023-05-22T03:52:21.104Z,37.82
2023-05-22T03:53:21.114Z,37.82
2023-05-22T03:54:21.161Z,37.81
2023-05-22T03:55:21.201Z,37.81
2023-05-22T03:56:21.222Z,37.81
2023-05-22T03:57:21.225Z,37.80
2023-05-22T03:58:21.256Z,37.81
2023-05-22T03:59:21.281Z,37.82
2023-05-22T04:00:21.295Z,37.81
2023-05-22T04:01:21.311Z,37.80
2023-05-22T04:02:21.468Z,37.80
2023-05-22T04:03:21.505Z,37.82
2023-05-22T04:04:21.367Z,37.81
2023-05-22T04:05:21.454Z,37.79
2023-05-22T04:06:21.404Z,37.80
2023-05-22T04:07:21.459Z,37.82
2023-05-22T04:08:21.474Z,37.83
2023-05-22T04:09:21.501Z,37.82
2023-05-22T04:10:21.504Z,37.80
2023-05-22T04:11:21.512Z,37.78
2023-05-22T04:12:21.552Z,37.78
2023-05-22T04:13:21.527Z,37.79
2023-05-22T04:14:21.506Z,37.79
2023-05-22T04:15:21.497Z,37.79
2023-05-22T04:16:21.575Z,37.78
2023-05-22T04:17:21.597Z,37.78
2023-05-22T04:18:21.526Z,37.78
2023-05-22T04:19:21.583Z,37.79
2023-05-22T04:20:21.576Z,37.77
2023-05-22T04:21:21.615Z,37.78
2023-05-22T04:22:21.597Z,37.80
2023-05-22T04:23:21.649Z,37.77
2023-05-22T04:24:21.675Z,37.78
2023-05-22T04:25:21.689Z,37.78
2023-05-22T04:26:21.744Z,37.76
2023-05-22T04:27:21.738Z,37.77
2023-05-22T04:28:21.787Z,37.75
2023-05-22T04:29:21.822Z,37.77
2023-05-22T04:30:21.838Z,37.78
2023-05-22T04:31:21.866Z,37.74
2023-05-22T04:32:21.893Z,37.76
2023-05-22T04:33:21.889Z,37.77
2023-05-22T04:34:21.893Z,37.79
2023-05-22T04:35:21.844Z,37.79
2023-05-22T04:36:21.915Z,37.76
2023-05-22T04:37:21.914Z,37.75
2023-05-22T04:38:21.929Z,37.76
2023-05-22T04:39:21.930Z,37.77
2023-05-22T04:40:21.950Z,37.76
2023-05-22T04:41:22.610Z,37.74
2023-05-22T04:42:22.004Z,37.75
2023-05-22T04:43:22.014Z,37.75
2023-05-22T04:44:22.009Z,37.74
2023-05-22T04:45:22.030Z,37.74
2023-05-22T04:46:22.117Z,37.75
2023-05-22T04:47:22.144Z,37.74
2023-05-22T04:48:22.159Z,37.74
2023-05-22T04:49:22.172Z,37.76
2023-05-22T04:50:22.165Z,37.75
2023-05-22T04:51:22.202Z,37.73
2023-05-22T04:52:22.261Z,37.74
2023-05-22T04:53:22.269Z,37.74
2023-05-22T04:54:22.296Z,37.74
2023-05-22T04:55:22.397Z,37.74
2023-05-22T04:56:35.225Z,37.73
2023-05-22T04:57:23.394Z,37.76
2023-05-22T04:58:22.360Z,37.73
2023-05-22T04:59:22.371Z,37.73
2023-05-22T05:00:22.389Z,37.73
2023-05-22T05:01:22.399Z,37.71
2023-05-22T05:02:22.390Z,37.69
2023-05-22T05:03:22.374Z,37.69
2023-05-22T05:04:22.359Z,37.70
2023-05-22T05:05:22.353Z,37.70
2023-05-22T05:06:22.326Z,37.71
2023-05-22T05:07:22.338Z,37.71
2023-05-22T05:08:22.325Z,37.71
2023-05-22T05:09:22.335Z,37.69
2023-05-22T05:10:22.347Z,37.70
2023-05-22T05:11:22.352Z,37.70
2023-05-22T05:12:22.395Z,37.70
2023-05-22T05:13:22.444Z,37.71
2023-05-22T05:14:22.415Z,37.69
2023-05-22T05:15:22.454Z,37.70
2023-05-22T05:16:22.528Z,37.67
2023-05-22T05:17:22.567Z,37.70
2023-05-22T05:18:22.612Z,37.69
2023-05-22T05:19:22.676Z,37.69
2023-05-22T05:20:22.659Z,37.69
2023-05-22T05:21:22.673Z,37.68
2023-05-22T05:22:22.745Z,37.68
2023-05-22T05:23:22.794Z,37.67
2023-05-22T05:24:22.787Z,37.66
2023-05-22T05:25:22.825Z,37.65
2023-05-22T05:26:22.874Z,37.67
2023-05-22T05:27:22.903Z,37.65
2023-05-22T05:28:22.891Z,37.63
2023-05-22T05:29:22.888Z,37.65
2023-05-22T05:30:22.946Z,37.66
2023-05-22T05:31:22.976Z,37.63
2023-05-22T05:32:23.088Z,37.62
2023-05-22T05:33:22.953Z,37.63
2023-05-22T05:34:22.958Z,37.64
2023-05-22T05:35:22.958Z,37.64
2023-05-22T05:36:22.971Z,37.61
2023-05-22T05:37:22.964Z,37.61
2023-05-22T05:38:22.993Z,37.61
2023-05-22T05:39:23.031Z,37.63
2023-05-22T05:40:23.063Z,37.62
2023-05-22T05:41:23.076Z,37.59
2023-05-22T05:42:23.090Z,37.60
2023-05-22T05:43:23.081Z,37.62
2023-05-22T05:44:23.111Z,37.60
2023-05-22T05:45:23.185Z,37.58
2023-05-22T05:46:23.216Z,37.60
2023-05-22T05:47:23.242Z,37.61
2023-05-22T05:48:23.262Z,37.61
2023-05-22T05:49:23.253Z,37.60
2023-05-22T05:50:23.316Z,37.60
2023-05-22T05:51:23.350Z,37.61
2023-05-22T05:52:23.395Z,37.59
2023-05-22T05:53:23.401Z,37.61
2023-05-22T05:54:23.446Z,37.58
2023-05-22T05:55:23.437Z,37.57
2023-05-22T05:56:23.484Z,37.59
2023-05-22T05:57:23.504Z,37.59
2023-05-22T05:58:23.497Z,37.58
2023-05-22T05:59:23.517Z,37.60
2023-05-22T06:00:23.579Z,37.59
2023-05-22T06:01:23.589Z,37.60
2023-05-22T06:02:23.728Z,37.59
2023-05-22T06:03:23.765Z,37.60
2023-05-22T06:04:23.736Z,37.59
2023-05-22T06:05:23.781Z,37.59
2023-05-22T06:06:23.764Z,37.58
2023-05-22T06:07:23.750Z,37.59
2023-05-22T06:08:23.792Z,37.58
2023-05-22T06:09:23.771Z,37.58
2023-05-22T06:10:23.806Z,37.58
2023-05-22T06:11:23.824Z,37.58
2023-05-22T06:12:23.892Z,37.57
2023-05-22T06:13:23.904Z,37.58
2023-05-22T06:14:23.899Z,37.58
2023-05-22T06:15:23.928Z,37.59
2023-05-22T06:16:23.983Z,37.58
2023-05-22T06:17:24.022Z,37.56
2023-05-22T06:18:23.971Z,37.56
2023-05-22T06:19:24.102Z,37.57
2023-05-22T06:20:24.048Z,37.56
2023-05-22T06:21:24.057Z,37.56
2023-05-22T06:22:24.073Z,37.56
2023-05-22T06:23:24.026Z,37.57
2023-05-22T06:24:24.079Z,37.56
2023-05-22T06:25:24.095Z,37.56
2023-05-22T06:26:24.099Z,37.56
2023-05-22T06:27:24.113Z,37.55
2023-05-22T06:28:24.128Z,37.55
2023-05-22T06:29:24.143Z,37.55
2023-05-22T06:30:38.936Z,37.56
2023-05-22T06:31:25.261Z,37.55
2023-05-22T06:32:24.292Z,37.53
2023-05-22T06:33:24.240Z,37.55
2023-05-22T06:34:24.242Z,37.55
2023-05-22T06:35:24.153Z,37.54
2023-05-22T06:36:24.147Z,37.52
2023-05-22T06:37:24.231Z,37.54
2023-05-22T06:38:24.144Z,37.53
2023-05-22T06:39:24.139Z,37.52
2023-05-22T06:40:24.149Z,37.54
2023-05-22T06:41:24.104Z,37.51
2023-05-22T06:42:24.174Z,37.54
2023-05-22T06:43:24.107Z,37.54
2023-05-22T06:44:24.154Z,37.52
2023-05-22T06:45:24.079Z,37.54
2023-05-22T06:46:25.942Z,37.50
2023-05-22T06:47:24.160Z,37.53
2023-05-22T06:48:24.079Z,37.51
2023-05-22T06:49:24.275Z,37.52
2023-05-22T06:50:24.071Z,37.51
2023-05-22T06:51:24.059Z,37.51
2023-05-22T06:52:24.075Z,37.52
2023-05-22T06:53:24.093Z,37.50
2023-05-22T06:54:24.089Z,37.51
2023-05-22T06:55:24.068Z,37.52
2023-05-22T06:56:24.080Z,37.50
2023-05-22T06:57:24.158Z,37.50
2023-05-22T06:58:24.114Z,37.50
2023-05-22T06:59:24.109Z,37.50
2023-05-22T07:00:24.146Z,37.48
2023-05-22T07:01:24.118Z,37.47
2023-05-22T07:02:24.096Z,37.47
2023-05-22T07:03:24.086Z,37.47
2023-05-22T07:04:24.082Z,37.47
2023-05-22T07:05:24.210Z,37.47
2023-05-22T07:06:24.154Z,37.49
2023-05-22T07:07:24.262Z,37.47
2023-05-22T07:08:24.209Z,37.48
2023-05-22T07:09:24.213Z,37.48
2023-05-22T07:10:24.231Z,37.47
2023-05-22T07:11:24.241Z,37.47
2023-05-22T07:12:24.218Z,37.47
2023-05-22T07:13:24.280Z,37.43
2023-05-22T07:14:24.346Z,37.45
2023-05-22T07:15:24.354Z,37.44
2023-05-22T07:16:24.466Z,37.45
2023-05-22T07:17:24.566Z,37.43
2023-05-22T07:18:24.488Z,37.45
2023-05-22T07:19:24.555Z,37.44
2023-05-22T07:20:24.590Z,37.46
2023-05-22T07:21:24.789Z,37.46
2023-05-22T07:22:24.690Z,37.43
2023-05-22T07:23:26.381Z,37.44
2023-05-22T07:24:24.831Z,37.44
2023-05-22T07:25:24.807Z,37.41
2023-05-22T07:26:24.847Z,37.43
2023-05-22T07:27:24.831Z,37.44
2023-05-22T07:28:24.919Z,37.41
2023-05-22T07:29:24.935Z,37.43
2023-05-22T07:30:24.937Z,37.42
2023-05-22T07:31:24.974Z,37.42
2023-05-22T07:32:25.098Z,37.46
2023-05-22T07:33:25.078Z,37.42
2023-05-22T07:34:25.165Z,37.40
2023-05-22T07:35:25.232Z,37.43
2023-05-22T07:36:25.258Z,37.42
2023-05-22T07:37:25.576Z,37.42
2023-05-22T07:38:25.392Z,37.45
2023-05-22T07:39:25.395Z,37.42
2023-05-22T07:40:26.517Z,37.43
2023-05-22T07:41:25.536Z,37.42
2023-05-22T07:42:25.656Z,37.42
2023-05-22T07:43:25.684Z,37.41
2023-05-22T07:44:25.733Z,37.42
2023-05-22T07:45:25.842Z,37.43
2023-05-22T07:46:25.852Z,37.43
2023-05-22T07:47:25.911Z,37.41
2023-05-22T07:48:25.978Z,37.44
2023-05-22T07:49:25.980Z,37.45
2023-05-22T07:50:26.101Z,37.43
2023-05-22T07:51:26.128Z,37.46
2023-05-22T07:52:27.185Z,37.44
2023-05-22T07:53:26.279Z,37.45
2023-05-22T07:54:26.318Z,37.47
2023-05-22T07:55:26.353Z,37.48
2023-05-22T07:56:26.415Z,37.45
2023-05-22T07:57:26.473Z,37.43
2023-05-22T07:58:26.506Z,37.40
2023-05-22T07:59:26.558Z,37.43
2023-05-22T08:00:26.696Z,37.44
2023-05-22T08:01:26.669Z,37.45
2023-05-22T08:02:26.864Z,37.44
2023-05-22T08:03:27.001Z,37.45
2023-05-22T08:04:27.018Z,37.45
2023-05-22T08:05:26.921Z,37.45
2023-05-22T08:06:27.013Z,37.46
2023-05-22T08:07:27.096Z,37.44
2023-05-22T08:08:28.894Z,37.44
2023-05-22T08:09:27.148Z,37.47
2023-05-22T08:10:30.039Z,37.44
2023-05-22T08:11:28.106Z,37.47
2023-05-22T08:12:27.076Z,37.46
2023-05-22T08:13:27.084Z,37.43
2023-05-22T08:14:27.056Z,37.46
2023-05-22T08:15:27.053Z,37.45
2023-05-22T08:16:27.045Z,37.46
2023-05-22T08:17:27.107Z,37.44
2023-05-22T08:18:27.036Z,37.47
2023-05-22T08:19:27.183Z,37.47
2023-05-22T08:20:27.249Z,37.45
2023-05-22T08:21:27.201Z,37.46
2023-05-22T08:22:27.279Z,37.46
2023-05-22T08:23:27.321Z,37.47
2023-05-22T08:24:27.649Z,37.46
2023-05-22T08:25:27.453Z,37.46
2023-05-22T08:26:27.860Z,37.45
2023-05-22T08:27:27.628Z,37.45
2023-05-22T08:28:27.648Z,37.46
2023-05-22T08:29:27.713Z,37.43
2023-05-22T08:30:27.814Z,37.46
2023-05-22T08:31:27.905Z,37.47
2023-05-22T08:32:29.351Z,37.49
2023-05-22T08:33:27.865Z,37.46
2023-05-22T08:34:27.937Z,37.46
2023-05-22T08:35:27.869Z,37.49
2023-05-22T08:36:27.865Z,37.46
2023-05-22T08:37:27.879Z,37.46
2023-05-22T08:38:27.820Z,37.47
2023-05-22T08:39:27.804Z,37.45
2023-05-22T08:40:27.808Z,37.47
2023-05-22T08:41:27.796Z,37.45
2023-05-22T08:42:27.801Z,37.47
2023-05-22T08:43:27.814Z,37.48
2023-05-22T08:44:27.761Z,37.46
2023-05-22T08:45:27.795Z,37.47
2023-05-22T08:46:27.780Z,37.43
2023-05-22T08:47:27.858Z,37.42
2023-05-22T08:48:27.729Z,37.46
2023-05-22T08:49:27.779Z,37.46
2023-05-22T08:50:27.798Z,37.48
2023-05-22T08:51:27.797Z,37.49
2023-05-22T08:52:27.751Z,37.48
2023-05-22T08:53:27.757Z,37.48
2023-05-22T08:54:27.700Z,37.49
2023-05-22T08:55:27.696Z,37.46
2023-05-22T08:56:29.622Z,37.47
2023-05-22T08:57:27.706Z,37.46
2023-05-22T08:58:27.713Z,37.47
2023-05-22T08:59:27.683Z,37.46
2023-05-22T09:00:27.703Z,37.46
2023-05-22T09:01:27.753Z,37.46
2023-05-22T09:02:27.746Z,37.47
2023-05-22T09:03:27.874Z,37.47
2023-05-22T09:04:27.860Z,37.47
2023-05-22T09:05:27.919Z,37.48
2023-05-22T09:06:27.944Z,37.48
2023-05-22T09:07:28.048Z,37.45
2023-05-22T09:08:28.093Z,37.47
2023-05-22T09:09:28.175Z,37.45
2023-05-22T09:10:28.227Z,37.46
2023-05-22T09:11:28.292Z,37.45
2023-05-22T09:12:28.372Z,37.45
2023-05-22T09:13:28.516Z,37.45
2023-05-22T09:14:28.502Z,37.46
2023-05-22T09:15:28.506Z,37.44
2023-05-22T09:16:28.611Z,37.45
2023-05-22T09:17:28.732Z,37.45
2023-05-22T09:18:28.710Z,37.46
2023-05-22T09:19:28.810Z,37.44
2023-05-22T09:20:28.831Z,37.45
2023-05-22T09:21:30.461Z,37.45
2023-05-22T09:22:28.941Z,37.45
2023-05-22T09:23:29.012Z,37.43
2023-05-22T09:24:29.090Z,37.43
2023-05-22T09:25:29.168Z,37.44
2023-05-22T09:26:29.234Z,37.45
2023-05-22T09:27:29.234Z,37.46
2023-05-22T09:28:29.348Z,37.43
2023-05-22T09:29:29.896Z,37.43
2023-05-22T09:30:29.428Z,37.43
2023-05-22T09:31:29.613Z,37.43
2023-05-22T09:32:29.626Z,37.42
2023-05-22T09:33:29.627Z,37.42
2023-05-22T09:34:29.687Z,37.43
2023-05-22T09:35:29.748Z,37.44
2023-05-22T09:36:29.799Z,37.43
2023-05-22T09:37:29.849Z,37.44
2023-05-22T09:38:29.921Z,37.47
2023-05-22T09:39:30.001Z,37.44
2023-05-22T09:40:30.026Z,37.44
2023-05-22T09:41:30.119Z,37.45
2023-05-22T09:42:30.282Z,37.45
2023-05-22T09:43:30.254Z,37.44
2023-05-22T09:44:30.385Z,37.45
2023-05-22T09:45:30.436Z,37.48
2023-05-22T09:46:30.408Z,37.48
2023-05-22T09:47:30.521Z,37.47
2023-05-22T09:48:30.550Z,37.49
2023-05-22T09:49:30.605Z,37.51
2023-05-22T09:50:30.632Z,37.51
2023-05-22T09:51:30.685Z,37.52
2023-05-22T09:52:30.873Z,37.52
2023-05-22T09:53:30.812Z,37.52
2023-05-22T09:54:30.886Z,37.51
2023-05-22T09:55:30.959Z,37.53
2023-05-22T09:56:39.096Z,37.57
2023-05-22T09:57:31.983Z,37.56
2023-05-22T09:58:31.014Z,37.53
2023-05-22T09:59:30.990Z,37.54
2023-05-22T10:00:30.991Z,37.53
2023-05-22T10:01:30.981Z,37.53
2023-05-22T10:02:30.957Z,37.52
2023-05-22T10:03:30.966Z,37.53
2023-05-22T10:04:30.939Z,37.53
2023-05-22T10:05:30.966Z,37.56
2023-05-22T10:06:30.966Z,37.56
2023-05-22T10:07:31.069Z,37.55
2023-05-22T10:08:31.122Z,37.56
2023-05-22T10:09:31.495Z,37.55
2023-05-22T10:10:31.236Z,37.56
2023-05-22T10:11:31.286Z,37.54
2023-05-22T10:12:31.302Z,37.56
2023-05-22T10:13:31.357Z,37.56
2023-05-22T10:14:31.434Z,37.57
2023-05-22T10:15:31.474Z,37.56
2023-05-22T10:16:31.687Z,37.55
2023-05-22T10:17:31.613Z,37.57
2023-05-22T10:18:31.658Z,37.57
2023-05-22T10:19:31.798Z,37.55
2023-05-22T10:20:31.746Z,37.55
2023-05-22T10:21:31.807Z,37.56
2023-05-22T10:22:31.860Z,37.59
2023-05-22T10:23:31.910Z,37.56
2023-05-22T10:24:31.987Z,37.57
2023-05-22T10:25:31.981Z,37.56
2023-05-22T10:26:32.080Z,37.56
2023-05-22T10:27:32.115Z,37.55
2023-05-22T10:28:32.175Z,37.56
2023-05-22T10:29:32.210Z,37.57
2023-05-22T10:30:32.300Z,37.56
2023-05-22T10:31:32.360Z,37.55
2023-05-22T10:32:32.526Z,37.56
2023-05-22T10:33:32.475Z,37.55
2023-05-22T10:34:32.471Z,37.55
2023-05-22T10:35:32.551Z,37.56
2023-05-22T10:36:32.613Z,37.54
2023-05-22T10:37:32.660Z,37.54
2023-05-22T10:38:32.715Z,37.54
2023-05-22T10:39:32.767Z,37.56
2023-05-22T10:40:32.796Z,37.54
2023-05-22T10:41:32.841Z,37.56
2023-05-22T10:42:32.910Z,37.53
2023-05-22T10:43:33.022Z,37.53
2023-05-22T10:44:33.048Z,37.56
2023-05-22T10:45:33.296Z,37.55
2023-05-22T10:46:33.190Z,37.57
2023-05-22T10:47:33.373Z,37.58
2023-05-22T10:48:33.424Z,37.55
2023-05-22T10:49:33.316Z,37.56
2023-05-22T10:50:33.359Z,37.59
2023-05-22T10:51:33.418Z,37.59
2023-05-22T10:52:33.459Z,37.59
2023-05-22T10:53:33.549Z,37.63
2023-05-22T10:54:33.572Z,37.62
2023-05-22T10:55:33.652Z,37.62
2023-05-22T10:56:33.695Z,37.65
2023-05-22T10:57:33.768Z,37.61
2023-05-22T10:58:33.833Z,37.62
2023-05-22T10:59:33.895Z,37.67
2023-05-22T11:00:33.925Z,37.60
2023-05-22T11:01:33.983Z,37.38
2023-05-22T11:02:34.088Z,37.32
2023-05-22T11:03:34.141Z,37.20
2023-05-22T11:04:34.195Z,37.10
2023-05-22T11:05:34.192Z,36.99
2023-05-22T11:06:34.249Z,36.83
2023-05-22T11:07:34.302Z,37.09
2023-05-22T11:08:34.408Z,36.92
2023-05-22T11:09:34.442Z,36.84
2023-05-22T11:10:34.454Z,36.70
2023-05-22T11:11:34.526Z,36.56
2023-05-22T11:12:34.515Z,36.48
2023-05-22T11:13:34.619Z,36.34
2023-05-22T11:14:34.625Z,36.30
2023-05-22T11:15:34.667Z,36.30
2023-05-22T11:16:34.751Z,36.37
2023-05-22T11:17:34.809Z,36.47
2023-05-22T11:18:34.849Z,36.45
2023-05-22T11:19:34.928Z,36.42
2023-05-22T11:20:35.047Z,36.44
2023-05-22T11:21:34.985Z,36.47
2023-05-22T11:22:35.014Z,36.48
2023-05-22T11:23:35.107Z,36.53
2023-05-22T11:24:35.163Z,36.61
2023-05-22T11:25:35.191Z,36.69
2023-05-22T11:26:35.235Z,36.73
2023-05-22T11:27:35.268Z,36.72
2023-05-22T11:28:35.337Z,36.76
2023-05-22T11:29:35.395Z,36.82
2023-05-22T11:30:35.433Z,36.86
2023-05-22T11:31:35.478Z,36.89
2023-05-22T11:32:35.552Z,36.90
2023-05-22T11:33:35.562Z,36.95
2023-05-22T11:34:35.592Z,37.00
2023-05-22T11:35:35.676Z,37.01
2023-05-22T11:36:35.786Z,37.03
2023-05-22T11:37:35.730Z,37.05
2023-05-22T11:38:35.827Z,37.07
2023-05-22T11:39:35.833Z,37.11
2023-05-22T11:40:35.861Z,37.13
2023-05-22T11:41:35.916Z,37.15
2023-05-22T11:42:35.996Z,37.17
2023-05-22T11:43:36.011Z,37.21
2023-05-22T11:44:36.095Z,37.26
2023-05-22T11:45:36.066Z,37.27
2023-05-22T11:46:36.155Z,37.31
2023-05-22T11:47:36.180Z,37.32
2023-05-22T11:48:36.260Z,37.35
2023-05-22T11:49:36.247Z,37.39
2023-05-22T11:50:42.278Z,37.42
2023-05-22T11:51:37.308Z,37.43
2023-05-22T11:52:36.352Z,37.43
2023-05-22T11:53:36.299Z,37.48
2023-05-22T11:54:38.575Z,37.48
2023-05-22T11:55:36.267Z,37.51
2023-05-22T11:56:36.262Z,37.58
2023-05-22T11:57:36.213Z,37.61
2023-05-22T11:58:36.207Z,37.61
2023-05-22T11:59:36.245Z,37.60
2023-05-22T12:00:36.232Z,37.58
2023-05-22T12:01:36.241Z,37.54
2023-05-22T12:02:36.342Z,37.56
2023-05-22T12:03:36.405Z,37.58
2023-05-22T12:04:36.169Z,37.64
2023-05-22T12:05:36.162Z,37.68
2023-05-22T12:06:36.186Z,37.69
2023-05-22T12:07:36.184Z,37.71
2023-05-22T12:08:36.239Z,37.71
2023-05-22T12:09:36.157Z,37.74
2023-05-22T12:10:36.133Z,37.71
2023-05-22T12:11:36.116Z,37.73
2023-05-22T12:12:36.148Z,37.76
2023-05-22T12:13:36.142Z,37.77
2023-05-22T12:14:36.138Z,37.79
2023-05-22T12:15:36.097Z,37.80
2023-05-22T12:16:36.177Z,37.82
2023-05-22T12:17:36.105Z,37.83
2023-05-22T12:18:36.090Z,37.84
2023-05-22T12:19:36.163Z,37.83
2023-05-22T12:20:36.095Z,37.84
2023-05-22T12:21:36.057Z,37.83
2023-05-22T12:22:36.030Z,37.92
2023-05-22T12:23:36.106Z,37.88
2023-05-22T12:24:36.112Z,37.90
2023-05-22T12:25:36.038Z,37.86
2023-05-22T12:26:36.018Z,37.74
2023-05-22T12:27:37.926Z,37.66
2023-05-22T12:28:36.147Z,37.60
2023-05-22T12:29:36.157Z,37.45
2023-05-22T12:30:36.185Z,37.41
2023-05-22T12:31:36.207Z,37.36
2023-05-22T12:32:36.188Z,37.34
2023-05-22T12:33:36.207Z,37.31
2023-05-22T12:34:36.258Z,37.30
2023-05-22T12:35:36.249Z,37.29
2023-05-22T12:36:36.265Z,37.25
2023-05-22T12:37:36.303Z,37.24
2023-05-22T12:38:36.337Z,37.22
2023-05-22T12:39:36.326Z,37.15
2023-05-22T12:40:36.427Z,37.03
2023-05-22T12:41:36.385Z,36.95
2023-05-22T12:42:36.345Z,36.85
2023-05-22T12:43:36.366Z,36.83
2023-05-22T12:44:36.411Z,36.88
2023-05-22T12:45:36.382Z,36.90
2023-05-22T12:46:36.465Z,36.84
2023-05-22T12:47:36.436Z,36.83
2023-05-22T12:48:36.413Z,36.79
2023-05-22T12:49:36.421Z,36.73
2023-05-22T12:50:36.475Z,36.67
2023-05-22T12:51:36.467Z,36.61
2023-05-22T12:52:36.518Z,36.55